createdAt,value
2022-12-11T00:02:25.664Z,91.55
2022-12-11T00:04:52.380Z,91.61
2022-12-11T00:07:19.368Z,91.53
2022-12-11T00:09:46.039Z,91.49
2022-12-11T00:12:12.656Z,91.53
2022-12-11T00:14:39.447Z,91.44
2022-12-11T00:17:06.227Z,91.56
2022-12-11T00:19:32.912Z,91.64
2022-12-11T00:22:00.048Z,91.22
2022-12-11T00:24:26.669Z,91.44
2022-12-11T00:26:53.403Z,91.49
2022-12-11T00:34:12.261Z,91.41
2022-12-11T00:37:38.771Z,91.50
2022-12-11T00:44:39.694Z,91.46
2022-12-11T00:48:06.821Z,91.35
2022-12-11T00:55:16.154Z,91.31
2022-12-11T00:58:42.579Z,91.28
2022-12-11T01:02:09.162Z,91.31
2022-12-11T01:05:35.585Z,91.31
2022-12-11T01:11:54.542Z,91.39
2022-12-11T01:14:21.354Z,91.21
2022-12-11T01:16:47.992Z,91.22
2022-12-11T01:19:15.283Z,91.33
2022-12-11T01:21:42.003Z,91.21
2022-12-11T01:24:08.667Z,91.23
2022-12-11T01:26:36.111Z,91.17
2022-12-11T01:29:03.217Z,91.24
2022-12-11T01:31:29.930Z,91.27
2022-12-11T01:33:56.860Z,91.24
2022-12-11T01:36:24.313Z,91.32
2022-12-11T01:38:51.081Z,91.17
2022-12-11T01:41:18.838Z,91.18
2022-12-11T01:44:14.860Z,91.24
2022-12-11T01:46:42.126Z,91.41
2022-12-11T01:49:14.249Z,91.32
2022-12-11T01:51:56.219Z,91.35
2022-12-11T01:54:24.816Z,91.24
2022-12-11T01:56:55.546Z,91.33
2022-12-11T01:59:26.938Z,91.56
2022-12-11T02:02:08.953Z,91.35
2022-12-11T02:04:38.315Z,91.41
2022-12-11T02:07:05.236Z,91.38
2022-12-11T02:09:34.919Z,91.40
2022-12-11T02:12:39.036Z,91.25
2022-12-11T02:15:14.958Z,91.39
2022-12-11T02:17:47.719Z,91.29
2022-12-11T02:20:20.444Z,91.42
2022-12-11T02:22:50.117Z,91.23
2022-12-11T02:26:09.367Z,91.51
2022-12-11T02:28:42.293Z,91.54
2022-12-11T02:31:31.988Z,91.57
2022-12-11T02:34:04.981Z,91.52
2022-12-11T02:36:38.720Z,91.72
2022-12-11T02:39:09.719Z,91.44
2022-12-11T02:41:37.285Z,91.52
2022-12-11T02:44:05.309Z,91.48
2022-12-11T02:46:34.973Z,91.55
2022-12-11T02:49:06.143Z,91.51
2022-12-11T02:51:37.602Z,91.39
2022-12-11T02:54:06.947Z,91.50
2022-12-11T02:56:40.675Z,91.45
2022-12-11T02:59:13.257Z,91.44
2022-12-11T03:01:40.107Z,91.35
2022-12-11T03:04:06.983Z,91.44
2022-12-11T03:06:40.182Z,91.47
2022-12-11T03:09:07.913Z,91.33
2022-12-11T03:11:34.690Z,91.39
2022-12-11T03:14:03.061Z,91.35
2022-12-11T03:16:42.305Z,91.37
2022-12-11T03:19:18.028Z,91.40
2022-12-11T03:21:59.532Z,91.83
2022-12-11T03:24:39.204Z,91.36
2022-12-11T03:27:21.014Z,91.34
2022-12-11T03:30:14.379Z,91.26
2022-12-11T03:32:48.912Z,91.27
2022-12-11T03:35:25.701Z,91.23
2022-12-11T03:37:55.063Z,91.34
2022-12-11T03:40:24.016Z,91.24
2022-12-11T03:42:52.930Z,91.27
2022-12-11T03:45:22.591Z,91.24
2022-12-11T03:47:51.762Z,91.19
2022-12-11T03:50:20.551Z,91.23
2022-12-11T03:52:48.526Z,91.16
2022-12-11T03:55:17.476Z,91.04
2022-12-11T03:57:44.526Z,91.24
2022-12-11T04:00:15.732Z,91.20
2022-12-11T04:02:43.317Z,91.23
2022-12-11T04:05:11.643Z,91.18
2022-12-11T04:07:38.551Z,91.02
2022-12-11T04:10:05.762Z,91.04
2022-12-11T04:12:32.560Z,91.13
2022-12-11T04:15:02.096Z,91.12
2022-12-11T04:17:55.161Z,91.12
2022-12-11T04:20:40.510Z,91.12
2022-12-11T04:23:31.117Z,91.19
2022-12-11T04:26:11.689Z,91.16
2022-12-11T04:28:39.018Z,91.11
2022-12-11T04:31:06.879Z,91.23
2022-12-11T04:33:33.605Z,91.14
2022-12-11T04:36:01.936Z,91.19
2022-12-11T04:38:28.605Z,91.02
2022-12-11T04:41:15.252Z,91.08
2022-12-11T04:43:45.310Z,91.05
2022-12-11T04:46:23.510Z,91.11
2022-12-11T04:48:56.773Z,91.04
2022-12-11T04:51:24.758Z,91.12
2022-12-11T04:53:51.419Z,91.03
2022-12-11T04:56:18.160Z,91.04
2022-12-11T04:58:46.294Z,90.99
2022-12-11T05:01:23.267Z,90.91
2022-12-11T05:03:50.703Z,91.06
2022-12-11T05:06:17.506Z,91.05
2022-12-11T05:08:45.441Z,91.12
2022-12-11T05:11:14.389Z,91.21
2022-12-11T05:13:41.471Z,91.02
2022-12-11T05:16:12.346Z,91.21
2022-12-11T05:18:39.766Z,91.45
2022-12-11T05:21:10.101Z,91.21
2022-12-11T05:23:37.123Z,91.26
2022-12-11T05:26:06.529Z,91.31
2022-12-11T05:28:37.411Z,91.34
2022-12-11T05:31:11.980Z,91.13
2022-12-11T05:33:38.771Z,91.37
2022-12-11T05:36:06.645Z,91.13
2022-12-11T05:38:33.619Z,91.13
2022-12-11T05:41:03.099Z,91.19
2022-12-11T05:43:31.826Z,91.12
2022-12-11T05:46:09.205Z,91.22
2022-12-11T05:48:36.714Z,90.96
2022-12-11T05:51:04.870Z,91.06
2022-12-11T05:53:32.184Z,91.04
2022-12-11T05:56:16.148Z,91.03
2022-12-11T05:58:43.922Z,91.10
2022-12-11T06:01:32.501Z,91.05
2022-12-11T06:03:59.885Z,91.03
2022-12-11T06:06:28.133Z,91.03
2022-12-11T06:08:56.597Z,91.03
2022-12-11T06:11:25.193Z,91.12
2022-12-11T06:13:52.447Z,90.96
2022-12-11T06:16:19.926Z,91.11
2022-12-11T06:18:47.326Z,91.01
2022-12-11T06:21:17.830Z,91.07
2022-12-11T06:23:45.926Z,91.10
2022-12-11T06:26:13.239Z,90.97
2022-12-11T06:28:40.419Z,90.95
2022-12-11T06:31:08.040Z,91.08
2022-12-11T06:33:35.413Z,91.17
2022-12-11T06:36:06.464Z,91.28
2022-12-11T06:38:33.165Z,91.25
2022-12-11T06:41:02.039Z,91.21
2022-12-11T06:43:28.647Z,91.26
2022-12-11T06:45:59.246Z,91.41
2022-12-11T06:48:30.359Z,91.26
2022-12-11T06:50:57.948Z,91.25
2022-12-11T06:53:24.593Z,91.15
2022-12-11T06:55:51.555Z,91.13
2022-12-11T06:58:18.167Z,91.25
2022-12-11T07:00:48.715Z,91.12
2022-12-11T07:03:15.600Z,91.13
2022-12-11T07:05:42.233Z,91.05
2022-12-11T07:08:08.916Z,90.97
2022-12-11T07:10:35.854Z,90.90
2022-12-11T07:13:02.478Z,90.98
2022-12-11T07:15:29.143Z,90.94
2022-12-11T07:17:56.032Z,90.97
2022-12-11T07:20:22.750Z,91.05
2022-12-11T07:22:49.402Z,90.90
2022-12-11T07:25:16.293Z,91.07
2022-12-11T07:27:42.985Z,90.88
2022-12-11T07:30:10.779Z,90.81
2022-12-11T07:32:37.755Z,90.74
2022-12-11T07:35:05.059Z,90.80
2022-12-11T07:37:31.707Z,90.80
2022-12-11T07:39:58.436Z,90.76
2022-12-11T07:42:25.032Z,90.79
2022-12-11T07:44:51.640Z,90.66
2022-12-11T07:47:18.466Z,90.66
2022-12-11T07:49:45.064Z,90.59
2022-12-11T07:52:11.676Z,90.61
2022-12-11T07:54:38.633Z,90.59
2022-12-11T07:57:08.188Z,90.63
2022-12-11T07:59:39.118Z,90.49
2022-12-11T08:02:06.242Z,90.47
2022-12-11T08:04:32.926Z,90.67
2022-12-11T08:06:59.727Z,90.83
2022-12-11T08:09:26.440Z,90.62
2022-12-11T08:11:53.118Z,90.51
2022-12-11T08:14:20.404Z,90.67
2022-12-11T08:16:47.588Z,90.73
2022-12-11T08:19:14.972Z,90.76
2022-12-11T08:21:42.130Z,90.78
2022-12-11T08:24:09.459Z,90.71
2022-12-11T08:26:36.282Z,90.80
2022-12-11T08:29:03.385Z,90.86
2022-12-11T08:31:30.794Z,90.90
2022-12-11T08:33:58.107Z,90.68
2022-12-11T08:36:25.877Z,90.90
2022-12-11T08:38:53.954Z,90.76
2022-12-11T08:41:29.400Z,90.89
2022-12-11T08:43:57.798Z,90.67
2022-12-11T08:46:27.225Z,90.60
2022-12-11T08:48:55.304Z,90.74
2022-12-11T08:51:24.543Z,90.74
2022-12-11T08:53:51.939Z,90.96
2022-12-11T08:56:20.752Z,90.53
2022-12-11T08:58:48.023Z,90.62
2022-12-11T09:01:18.043Z,90.43
2022-12-11T09:03:45.003Z,90.65
2022-12-11T09:06:14.596Z,90.65
2022-12-11T09:08:46.016Z,90.40
2022-12-11T09:11:21.614Z,90.52
2022-12-11T09:13:48.579Z,90.49
2022-12-11T09:16:17.715Z,90.45
2022-12-11T09:18:50.482Z,90.42
2022-12-11T09:21:19.847Z,90.39
2022-12-11T09:23:47.219Z,90.38
2022-12-11T09:26:16.623Z,90.29
2022-12-11T09:28:46.564Z,90.26
2022-12-11T09:31:16.306Z,90.21
2022-12-11T09:33:43.438Z,90.10
2022-12-11T09:36:12.009Z,90.10
2022-12-11T09:38:39.252Z,89.98
2022-12-11T09:41:38.509Z,89.76
2022-12-11T09:44:11.075Z,89.75
2022-12-11T09:46:42.494Z,89.63
2022-12-11T09:49:27.217Z,89.56
2022-12-11T09:52:00.612Z,89.44
2022-12-11T09:54:27.399Z,89.26
2022-12-11T09:57:09.589Z,89.12
2022-12-11T10:00:05.635Z,88.98
2022-12-11T10:02:59.327Z,88.73
2022-12-11T10:05:31.837Z,88.53
2022-12-11T10:08:11.873Z,88.36
2022-12-11T10:10:43.491Z,88.13
2022-12-11T10:13:30.738Z,88.01
2022-12-11T10:16:10.616Z,87.88
2022-12-11T10:18:38.799Z,87.76
2022-12-11T10:21:05.968Z,87.62
2022-12-11T10:23:38.301Z,87.67
2022-12-11T10:26:10.602Z,87.39
2022-12-11T10:28:37.351Z,87.42
2022-12-11T10:31:40.885Z,87.31
2022-12-11T10:34:14.973Z,87.32
2022-12-11T10:36:43.478Z,87.09
2022-12-11T10:39:22.279Z,87.17
2022-12-11T10:41:54.320Z,87.29
2022-12-11T10:44:22.353Z,87.35
2022-12-11T10:47:02.561Z,87.30
2022-12-11T10:49:31.558Z,87.48
2022-12-11T10:52:01.596Z,87.39
2022-12-11T10:54:38.436Z,87.40
2022-12-11T10:57:08.419Z,87.63
2022-12-11T10:59:47.419Z,87.48
2022-12-11T11:02:31.000Z,87.48
2022-12-11T11:05:00.078Z,87.53
2022-12-11T11:07:28.567Z,87.49
2022-12-11T11:10:11.529Z,87.65
2022-12-11T11:12:43.731Z,87.71
2022-12-11T11:15:15.602Z,87.82
2022-12-11T11:17:54.547Z,87.73
2022-12-11T11:20:27.935Z,87.87
2022-12-11T11:22:57.738Z,87.79
2022-12-11T11:25:30.264Z,87.80
2022-12-11T11:28:15.617Z,87.68
2022-12-11T11:30:54.077Z,87.78
2022-12-11T11:33:23.142Z,87.76
2022-12-11T11:35:59.464Z,87.70
2022-12-11T11:38:39.169Z,87.80
2022-12-11T11:41:15.739Z,87.78
2022-12-11T11:43:49.086Z,87.78
2022-12-11T11:46:24.705Z,87.94
2022-12-11T11:49:04.326Z,87.89
2022-12-11T11:51:37.443Z,88.02
2022-12-11T11:54:17.343Z,87.91
2022-12-11T11:56:45.575Z,87.98
2022-12-11T11:59:31.733Z,88.04
2022-12-11T12:01:59.307Z,87.98
2022-12-11T12:04:32.128Z,88.01
2022-12-11T12:07:11.007Z,88.01
2022-12-11T12:09:52.725Z,88.03
2022-12-11T12:12:37.249Z,88.04
2022-12-11T12:15:21.906Z,88.00
2022-12-11T12:18:10.244Z,87.94
2022-12-11T12:21:14.618Z,88.08
2022-12-11T12:23:56.485Z,88.03
2022-12-11T12:26:31.866Z,88.11
2022-12-11T12:29:36.335Z,88.04
2022-12-11T12:32:23.459Z,87.96
2022-12-11T12:35:06.484Z,88.03
2022-12-11T12:38:20.746Z,88.07
2022-12-11T12:41:02.766Z,88.09
2022-12-11T12:43:51.192Z,88.11
2022-12-11T12:46:49.973Z,88.09
2022-12-11T12:49:39.607Z,88.09
2022-12-11T12:52:14.502Z,88.22
2022-12-11T12:55:05.071Z,88.01
2022-12-11T12:57:35.358Z,88.16
2022-12-11T13:00:02.319Z,88.21
2022-12-11T13:02:30.079Z,88.23
2022-12-11T13:05:01.041Z,87.99
2022-12-11T13:07:31.780Z,87.80
2022-12-11T13:10:07.292Z,87.59
2022-12-11T13:12:44.604Z,87.50
2022-12-11T13:15:30.123Z,87.16
2022-12-11T13:17:57.414Z,86.84
2022-12-11T13:20:27.478Z,86.64
2022-12-11T13:23:11.469Z,86.42
2022-12-11T13:25:50.225Z,86.27
2022-12-11T13:28:34.790Z,86.35
2022-12-11T13:31:22.897Z,86.19
2022-12-11T13:33:52.515Z,86.23
2022-12-11T13:36:34.097Z,86.09
2022-12-11T13:39:18.727Z,86.21
2022-12-11T13:41:53.931Z,86.16
2022-12-11T13:44:29.171Z,86.24
2022-12-11T13:46:59.120Z,86.02
2022-12-11T13:49:35.376Z,86.44
2022-12-11T13:52:02.583Z,86.20
2022-12-11T13:54:31.297Z,86.17
2022-12-11T13:57:17.455Z,86.13
2022-12-11T13:59:50.277Z,86.09
2022-12-11T14:02:32.558Z,86.35
2022-12-11T14:05:08.344Z,86.12
2022-12-11T14:07:39.128Z,86.15
2022-12-11T14:10:13.556Z,86.13
2022-12-11T14:12:48.262Z,86.14
2022-12-11T14:15:15.907Z,86.16
2022-12-11T14:17:48.476Z,86.31
2022-12-11T14:20:21.950Z,86.33
2022-12-11T14:22:48.591Z,86.33
2022-12-11T14:25:26.788Z,86.27
2022-12-11T14:27:56.336Z,86.40
2022-12-11T14:30:23.036Z,86.40
2022-12-11T14:32:50.876Z,86.35
2022-12-11T14:35:40.233Z,86.54
2022-12-11T14:38:37.665Z,86.53
2022-12-11T14:41:13.039Z,86.62
2022-12-11T14:44:07.402Z,86.72
2022-12-11T14:46:44.072Z,86.82
2022-12-11T14:49:24.755Z,86.85
2022-12-11T14:51:55.218Z,86.93
2022-12-11T14:54:38.286Z,87.11
2022-12-11T14:57:06.738Z,87.17
2022-12-11T14:59:41.595Z,87.06
2022-12-11T15:02:23.894Z,87.27
2022-12-11T15:05:14.586Z,87.28
2022-12-11T15:07:56.149Z,87.42
2022-12-11T15:10:37.126Z,87.46
2022-12-11T15:13:08.268Z,87.55
2022-12-11T15:15:47.766Z,87.61
2022-12-11T15:18:26.122Z,87.68
2022-12-11T15:21:09.611Z,87.72
2022-12-11T15:23:57.113Z,87.83
2022-12-11T15:26:44.720Z,87.86
2022-12-11T15:29:43.534Z,88.02
2022-12-11T15:32:10.451Z,88.09
2022-12-11T15:34:46.313Z,88.32
2022-12-11T15:37:26.316Z,88.21
2022-12-11T15:39:54.635Z,88.27
2022-12-11T15:42:34.777Z,88.41
2022-12-11T15:45:01.932Z,88.21
2022-12-11T15:47:30.359Z,88.68
2022-12-11T15:50:03.367Z,88.87
2022-12-11T15:52:29.996Z,88.95
2022-12-11T15:54:56.607Z,88.98
2022-12-11T15:57:24.873Z,89.25
2022-12-11T15:59:54.406Z,89.35
2022-12-11T16:02:21.645Z,89.39
2022-12-11T16:04:48.650Z,89.57
2022-12-11T16:07:21.227Z,89.62
2022-12-11T16:09:48.562Z,89.66
2022-12-11T16:12:16.353Z,89.87
2022-12-11T16:14:44.578Z,89.91
2022-12-11T16:17:13.043Z,89.99
2022-12-11T16:19:41.620Z,90.08
2022-12-11T16:22:09.177Z,90.26
2022-12-11T16:24:37.009Z,90.29
2022-12-11T16:27:04.822Z,90.48
2022-12-11T16:29:38.947Z,90.52
2022-12-11T16:32:08.317Z,90.65
2022-12-11T16:34:36.101Z,90.82
2022-12-11T16:37:02.903Z,90.86
2022-12-11T16:39:29.642Z,90.91
2022-12-11T16:41:56.349Z,90.95
2022-12-11T16:44:26.139Z,90.88
2022-12-11T16:46:54.066Z,91.07
2022-12-11T16:49:21.003Z,91.07
2022-12-11T16:51:49.452Z,91.09
2022-12-11T16:54:16.614Z,91.13
2022-12-11T16:56:43.843Z,91.30
2022-12-11T16:59:11.256Z,91.32
2022-12-11T17:01:37.973Z,91.31
2022-12-11T17:04:04.783Z,91.39
2022-12-11T17:06:31.958Z,91.41
2022-12-11T17:08:58.780Z,91.31
2022-12-11T17:11:26.286Z,91.34
2022-12-11T17:13:57.745Z,91.43
2022-12-11T17:16:26.660Z,91.33
2022-12-11T17:18:53.764Z,91.44
2022-12-11T17:21:22.396Z,91.40
2022-12-11T17:23:49.868Z,91.35
2022-12-11T17:26:17.081Z,91.62
2022-12-11T17:28:44.238Z,91.46
2022-12-11T17:31:17.220Z,91.41
2022-12-11T17:33:44.863Z,91.46
2022-12-11T17:36:17.067Z,91.52
2022-12-11T17:38:43.809Z,91.44
2022-12-11T17:41:19.810Z,91.41
2022-12-11T17:43:49.090Z,91.56
2022-12-11T17:46:16.085Z,91.52
2022-12-11T17:48:43.098Z,91.46
2022-12-11T17:51:11.983Z,91.38
2022-12-11T17:53:38.900Z,91.63
2022-12-11T17:56:07.977Z,91.43
2022-12-11T17:58:35.312Z,91.58
2022-12-11T18:01:07.185Z,91.49
2022-12-11T18:03:33.873Z,91.56
2022-12-11T18:06:08.815Z,91.64
2022-12-11T18:08:35.815Z,91.49
2022-12-11T18:11:11.672Z,91.64
2022-12-11T18:13:38.855Z,91.49
2022-12-11T18:16:17.683Z,91.69
2022-12-11T18:18:46.364Z,91.60
2022-12-11T18:21:16.141Z,91.64
2022-12-11T18:23:43.154Z,91.70
2022-12-11T18:26:11.248Z,91.67
2022-12-11T18:28:37.923Z,91.66
2022-12-11T18:31:05.384Z,91.68
2022-12-11T18:33:32.314Z,91.73
2022-12-11T18:35:58.921Z,91.73
2022-12-11T18:38:25.998Z,91.66
2022-12-11T18:40:52.656Z,91.63
2022-12-11T18:43:19.346Z,91.76
2022-12-11T18:45:46.463Z,91.66
2022-12-11T18:48:14.282Z,91.76
2022-12-11T18:50:49.776Z,91.88
2022-12-11T18:53:17.447Z,91.67
2022-12-11T18:55:45.682Z,91.75
2022-12-11T18:58:14.634Z,91.75
2022-12-11T19:00:41.939Z,91.67
2022-12-11T19:03:09.864Z,91.69
2022-12-11T19:05:37.363Z,91.67
2022-12-11T19:08:04.373Z,91.76
2022-12-11T19:10:31.037Z,91.70
2022-12-11T19:12:58.039Z,91.72
2022-12-11T19:15:24.745Z,91.66
2022-12-11T19:17:51.556Z,91.73
2022-12-11T19:20:47.529Z,91.68
2022-12-11T19:23:05.740Z,91.59
2022-12-11T19:25:33.089Z,91.75
2022-12-11T19:27:59.724Z,91.71
2022-12-11T19:30:26.512Z,91.70
2022-12-11T19:32:53.511Z,91.59
2022-12-11T19:35:20.167Z,91.65
2022-12-11T19:37:46.908Z,91.70
2022-12-11T19:40:14.698Z,91.60
2022-12-11T19:42:41.657Z,91.58
2022-12-11T19:45:08.740Z,91.68
2022-12-11T19:47:37.193Z,91.66
2022-12-11T19:50:04.105Z,91.59
2022-12-11T19:52:30.829Z,91.61
2022-12-11T19:55:02.034Z,91.67
2022-12-11T19:57:28.771Z,91.70
2022-12-11T19:59:57.369Z,91.66
2022-12-11T20:02:24.540Z,91.65
2022-12-11T20:04:51.379Z,91.66
2022-12-11T20:07:19.118Z,91.62
2022-12-11T20:09:46.782Z,91.60
2022-12-11T20:12:13.575Z,91.76
2022-12-11T20:14:40.353Z,91.71
2022-12-11T20:17:12.546Z,91.72
2022-12-11T20:19:43.784Z,91.83
2022-12-11T20:22:13.269Z,91.82
2022-12-11T20:24:40.438Z,91.79
2022-12-11T20:27:07.330Z,91.71
2022-12-11T20:29:34.332Z,91.79
2022-12-11T20:32:01.278Z,91.59
2022-12-11T20:34:31.417Z,91.74
2022-12-11T20:37:00.634Z,91.85
2022-12-11T20:39:27.523Z,92.03
2022-12-11T20:41:54.215Z,91.92
2022-12-11T20:44:23.950Z,91.78
2022-12-11T20:46:51.054Z,91.93
2022-12-11T20:49:17.733Z,91.93
2022-12-11T20:51:45.541Z,91.77
2022-12-11T20:54:12.472Z,91.94
2022-12-11T20:56:39.302Z,91.93
2022-12-11T20:59:07.477Z,91.74
2022-12-11T21:01:35.120Z,91.97
2022-12-11T21:04:02.194Z,91.98
2022-12-11T21:06:32.874Z,91.99
2022-12-11T21:09:01.664Z,91.91
2022-12-11T21:11:28.804Z,91.96
2022-12-11T21:13:56.179Z,91.84
2022-12-11T21:16:23.998Z,91.82
2022-12-11T21:18:51.075Z,91.79
2022-12-11T21:21:18.473Z,91.86
2022-12-11T21:23:45.417Z,91.87
2022-12-11T21:26:12.914Z,91.93
2022-12-11T21:29:39.677Z,91.75
2022-12-11T21:32:14.511Z,91.94
2022-12-11T21:35:42.942Z,91.89
2022-12-11T21:39:09.702Z,91.83
2022-12-11T21:42:36.642Z,91.83
2022-12-11T21:46:07.706Z,91.92
2022-12-11T21:49:34.682Z,91.85
2022-12-11T21:52:01.467Z,91.68
2022-12-11T21:55:28.688Z,91.88
2022-12-11T22:02:15.235Z,91.90
2022-12-11T22:05:24.347Z,91.94
2022-12-11T22:08:51.462Z,91.93
2022-12-11T22:12:20.975Z,92.04
2022-12-11T22:15:49.785Z,91.98
2022-12-11T22:18:16.836Z,91.99
2022-12-11T22:21:43.809Z,91.75
2022-12-11T22:25:10.638Z,91.87
2022-12-11T22:28:37.769Z,91.92
2022-12-11T22:35:04.811Z,92.01
2022-12-11T22:38:16.865Z,92.03
2022-12-11T22:41:42.276Z,92.02
2022-12-11T22:45:14.997Z,92.12
2022-12-11T22:53:16.633Z,92.15
2022-12-11T22:56:23.403Z,92.16
2022-12-11T23:03:42.483Z,92.32
2022-12-11T23:07:09.108Z,92.13
2022-12-11T23:09:36.086Z,92.13
2022-12-11T23:16:54.830Z,92.09
2022-12-11T23:20:21.450Z,92.13
2022-12-11T23:27:31.041Z,92.22
2022-12-11T23:30:25.484Z,91.98
2022-12-11T23:33:34.847Z,91.91
2022-12-11T23:39:43.932Z,91.91
2022-12-11T23:42:10.713Z,91.89
2022-12-11T23:44:37.363Z,91.92
2022-12-11T23:47:04.227Z,91.85
2022-12-11T23:49:30.833Z,91.83
2022-12-11T23:51:57.462Z,91.82
2022-12-11T23:54:24.577Z,91.83
2022-12-11T23:56:51.168Z,91.89
2022-12-11T23:59:18.285Z,91.93
